sensor_id;sensor_type;location;lat;lon;timestamp;P1;durP1;ratioP1;P2;durP2;ratioP2
2652;SDS011;1336;48.692;9.144;2024-01-15T06:00:24;19.27;;;12.70;;
2652;SDS011;1336;48.692;9.144;2024-01-15T06:01:16;17.70;;;13.02;;
2652;SDS011;1336;48.692;9.144;2024-01-15T06:02:07;19.25;;;12.68;;
2652;SDS011;1336;48.692;9.144;2024-01-15T06:02:58;19.33;;;12.45;;
2652;SDS011;1336;48.692;9.144;2024-01-15T06:03:51;19.85;;;12.90;;
2652;SDS011;1336;48.692;9.144;2024-01-15T06:04:42;17.33;;;12.02;;
2652;SDS011;1336;48.692;9.144;2024-01-15T06:05:33;18.48;;;12.55;;
2652;SDS011;1336;48.692;9.144;2024-01-15T06:06:25;16.77;;;12.23;;
2652;SDS011;1336;48.692;9.144;2024-01-15T06:07:16;17.45;;;12.25;;
2652;SDS011;1336;48.692;9.144;2024-01-15T06:08:07;18.33;;;12.52;;
2652;SDS011;1336;48.692;9.144;2024-01-15T06:09:00;20.48;;;12.98;;
2652;SDS011;1336;48.692;9.144;2024-01-15T06:09:55;18.75;;;12.57;;
2652;SDS011;1336;48.692;9.144;2024-01-15T06:10:47;16.83;;;12.07;;
2652;SDS011;1336;48.692;9.144;2024-01-15T06:11:39;17.63;;;11.50;;
2652;SDS011;1336;48.692;9.144;2024-01-15T06:12:30;16.33;;;11.30;;
2652;SDS011;1336;48.692;9.144;2024-01-15T06:13:22;19.02;;;12.80;;
2652;SDS011;1336;48.692;9.144;2024-01-15T06:14:14;18.02;;;12.80;;
2652;SDS011;1336;48.692;9.144;2024-01-15T06:15:05;14.70;;;10.90;;
2652;SDS011;1336;48.692;9.144;2024-01-15T06:15:58;18.55;;;12.50;;
2652;SDS011;1336;48.692;9.144;2024-01-15T06:16:50;18.15;;;11.80;;
2652;SDS011;1336;48.692;9.144;2024-01-15T06:17:41;17.35;;;12.93;;
2652;SDS011;1336;48.692;9.144;2024-01-15T06:18:32;17.13;;;12.50;;
2652;SDS011;1336;48.692;9.144;2024-01-15T06:19:24;17.95;;;12.25;;
2652;SDS011;1336;48.692;9.144;2024-01-15T06:20:15;15.85;;;11.43;;
2652;SDS011;1336;48.692;9.144;2024-01-15T06:21:07;18.70;;;13.10;;
2652;SDS011;1336;48.692;9.144;2024-01-15T06:22:00;16.48;;;11.40;;
2652;SDS011;1336;48.692;9.144;2024-01-15T06:22:52;16.98;;;12.43;;
2652;SDS011;1336;48.692;9.144;2024-01-15T06:23:43;18.88;;;12.13;;
2652;SDS011;1336;48.692;9.144;2024-01-15T06:24:34;16.67;;;12.23;;
2652;SDS011;1336;48.692;9.144;2024-01-15T06:25:26;17.50;;;12.02;;
2652;SDS011;1336;48.692;9.144;2024-01-15T06:26:17;17.67;;;11.60;;
2652;SDS011;1336;48.692;9.144;2024-01-15T06:27:09;16.50;;;11.55;;
2652;SDS011;1336;48.692;9.144;2024-01-15T06:28:01;19.20;;;12.77;;
2652;SDS011;1336;48.692;9.144;2024-01-15T06:28:52;15.98;;;11.43;;
2652;SDS011;1336;48.692;9.144;2024-01-15T06:29:44;17.58;;;12.05;;
2652;SDS011;1336;48.692;9.144;2024-01-15T06:30:37;18.77;;;12.20;;
2652;SDS011;1336;48.692;9.144;2024-01-15T06:31:30;18.13;;;11.95;;
2652;SDS011;1336;48.692;9.144;2024-01-15T06:32:22;16.27;;;11.30;;
2652;SDS011;1336;48.692;9.144;2024-01-15T06:33:13;14.50;;;10.82;;
2652;SDS011;1336;48.692;9.144;2024-01-15T06:34:05;18.55;;;11.38;;
2652;SDS011;1336;48.692;9.144;2024-01-15T06:34:56;17.30;;;11.70;;
2652;SDS011;1336;48.692;9.144;2024-01-15T06:35:47;18.45;;;11.50;;
2652;SDS011;1336;48.692;9.144;2024-01-15T06:36:39;18.25;;;12.18;;
2652;SDS011;1336;48.692;9.144;2024-01-15T06:37:30;16.15;;;11.70;;
2652;SDS011;1336;48.692;9.144;2024-01-15T06:38:22;17.73;;;12.40;;
2652;SDS011;1336;48.692;9.144;2024-01-15T06:39:15;17.08;;;11.70;;
2652;SDS011;1336;48.692;9.144;2024-01-15T06:40:06;17.95;;;12.93;;
2652;SDS011;1336;48.692;9.144;2024-01-15T06:40:59;16.73;;;11.70;;
2652;SDS011;1336;48.692;9.144;2024-01-15T06:41:50;15.65;;;11.20;;
2652;SDS011;1336;48.692;9.144;2024-01-15T06:42:42;16.30;;;12.05;;
2652;SDS011;1336;48.692;9.144;2024-01-15T06:43:35;16.23;;;12.05;;
2652;SDS011;1336;48.692;9.144;2024-01-15T06:44:27;15.60;;;11.80;;
2652;SDS011;1336;48.692;9.144;2024-01-15T06:45:18;16.35;;;11.60;;
2652;SDS011;1336;48.692;9.144;2024-01-15T06:46:09;15.30;;;12.20;;
2652;SDS011;1336;48.692;9.144;2024-01-15T06:47:03;16.05;;;11.18;;
2652;SDS011;1336;48.692;9.144;2024-01-15T06:47:54;16.58;;;12.18;;
2652;SDS011;1336;48.692;9.144;2024-01-15T06:48:45;17.17;;;11.82;;
2652;SDS011;1336;48.692;9.144;2024-01-15T06:49:38;15.30;;;11.35;;
2652;SDS011;1336;48.692;9.144;2024-01-15T06:50:29;18.00;;;11.55;;
2652;SDS011;1336;48.692;9.144;2024-01-15T06:51:21;14.85;;;11.23;;
2652;SDS011;1336;48.692;9.144;2024-01-15T06:52:13;15.38;;;11.27;;
2652;SDS011;1336;48.692;9.144;2024-01-15T06:53:04;17.85;;;11.77;;
2652;SDS011;1336;48.692;9.144;2024-01-15T06:53:55;15.55;;;11.32;;
2652;SDS011;1336;48.692;9.144;2024-01-15T06:54:47;19.95;;;11.00;;
2652;SDS011;1336;48.692;9.144;2024-01-15T06:55:38;15.30;;;10.77;;
2652;SDS011;1336;48.692;9.144;2024-01-15T06:56:29;15.85;;;11.50;;
2652;SDS011;1336;48.692;9.144;2024-01-15T06:57:21;15.57;;;10.98;;
2652;SDS011;1336;48.692;9.144;2024-01-15T06:58:12;14.45;;;10.40;;
2652;SDS011;1336;48.692;9.144;2024-01-15T06:59:03;16.33;;;11.27;;
2652;SDS011;1336;48.692;9.144;2024-01-15T06:59:55;13.18;;;10.35;;
2652;SDS011;1336;48.692;9.144;2024-01-15T07:00:46;15.43;;;11.00;;
2652;SDS011;1336;48.692;9.144;2024-01-15T07:01:38;16.00;;;10.82;;
2652;SDS011;1336;48.692;9.144;2024-01-15T07:02:31;14.73;;;10.40;;
2652;SDS011;1336;48.692;9.144;2024-01-15T07:03:22;15.35;;;10.15;;
2652;SDS011;1336;48.692;9.144;2024-01-15T07:04:15;15.35;;;10.52;;
2652;SDS011;1336;48.692;9.144;2024-01-15T07:05:06;13.77;;;10.05;;
2652;SDS011;1336;48.692;9.144;2024-01-15T07:05:57;16.42;;;10.45;;
2652;SDS011;1336;48.692;9.144;2024-01-15T07:06:49;12.45;;;9.65;;
2652;SDS011;1336;48.692;9.144;2024-01-15T07:07:40;13.45;;;9.77;;
2652;SDS011;1336;48.692;9.144;2024-01-15T07:08:32;15.13;;;10.15;;
2652;SDS011;1336;48.692;9.144;2024-01-15T07:09:24;13.30;;;9.45;;
2652;SDS011;1336;48.692;9.144;2024-01-15T07:10:15;12.82;;;9.45;;
2652;SDS011;1336;48.692;9.144;2024-01-15T07:11:06;13.88;;;10.45;;
2652;SDS011;1336;48.692;9.144;2024-01-15T07:11:58;11.93;;;9.75;;
2652;SDS011;1336;48.692;9.144;2024-01-15T07:12:50;16.27;;;9.40;;
2652;SDS011;1336;48.692;9.144;2024-01-15T07:13:41;11.90;;;8.95;;
2652;SDS011;1336;48.692;9.144;2024-01-15T07:14:33;12.25;;;9.38;;
2652;SDS011;1336;48.692;9.144;2024-01-15T07:15:24;15.10;;;10.25;;
2652;SDS011;1336;48.692;9.144;2024-01-15T07:16:15;11.68;;;9.73;;
2652;SDS011;1336;48.692;9.144;2024-01-15T07:17:07;13.43;;;9.60;;
2652;SDS011;1336;48.692;9.144;2024-01-15T07:17:59;14.90;;;9.40;;
2652;SDS011;1336;48.692;9.144;2024-01-15T07:18:52;13.05;;;10.13;;
2652;SDS011;1336;48.692;9.144;2024-01-15T07:19:43;13.70;;;9.65;;
2652;SDS011;1336;48.692;9.144;2024-01-15T07:20:34;15.02;;;10.05;;
2652;SDS011;1336;48.692;9.144;2024-01-15T07:21:26;14.38;;;10.10;;
2652;SDS011;1336;48.692;9.144;2024-01-15T07:22:17;13.25;;;9.60;;
2652;SDS011;1336;48.692;9.144;2024-01-15T07:23:08;12.57;;;9.90;;
2652;SDS011;1336;48.692;9.144;2024-01-15T07:24:00;12.02;;;9.27;;
2652;SDS011;1336;48.692;9.144;2024-01-15T07:24:51;12.70;;;9.90;;
2652;SDS011;1336;48.692;9.144;2024-01-15T07:25:44;11.82;;;9.48;;
2652;SDS011;1336;48.692;9.144;2024-01-15T07:26:35;14.00;;;9.80;;
2652;SDS011;1336;48.692;9.144;2024-01-15T07:27:26;14.65;;;9.88;;
2652;SDS011;1336;48.692;9.144;2024-01-15T07:28:18;14.07;;;10.30;;
2652;SDS011;1336;48.692;9.144;2024-01-15T07:29:10;13.90;;;10.00;;
2652;SDS011;1336;48.692;9.144;2024-01-15T07:30:01;14.32;;;10.10;;
2652;SDS011;1336;48.692;9.144;2024-01-15T07:30:55;11.57;;;8.80;;
2652;SDS011;1336;48.692;9.144;2024-01-15T07:31:47;14.13;;;10.07;;
2652;SDS011;1336;48.692;9.144;2024-01-15T07:32:38;14.93;;;10.90;;
2652;SDS011;1336;48.692;9.144;2024-01-15T07:33:32;13.55;;;9.80;;
2652;SDS011;1336;48.692;9.144;2024-01-15T07:34:23;14.30;;;10.10;;
2652;SDS011;1336;48.692;9.144;2024-01-15T07:35:14;14.32;;;9.77;;
2652;SDS011;1336;48.692;9.144;2024-01-15T07:36:07;14.00;;;9.60;;
2652;SDS011;1336;48.692;9.144;2024-01-15T07:36:58;13.70;;;10.13;;
2652;SDS011;1336;48.692;9.144;2024-01-15T07:37:49;13.77;;;9.93;;
2652;SDS011;1336;48.692;9.144;2024-01-15T07:38:41;14.15;;;10.63;;
2652;SDS011;1336;48.692;9.144;2024-01-15T07:39:33;14.48;;;10.07;;
2652;SDS011;1336;48.692;9.144;2024-01-15T07:40:24;11.82;;;9.00;;
2652;SDS011;1336;48.692;9.144;2024-01-15T07:41:16;13.63;;;10.88;;
2652;SDS011;1336;48.692;9.144;2024-01-15T07:42:07;15.73;;;11.20;;
2652;SDS011;1336;48.692;9.144;2024-01-15T07:42:59;16.00;;;11.30;;
2652;SDS011;1336;48.692;9.144;2024-01-15T07:43:50;15.60;;;12.55;;
2652;SDS011;1336;48.692;9.144;2024-01-15T07:44:42;13.27;;;10.63;;
2652;SDS011;1336;48.692;9.144;2024-01-15T07:45:35;13.38;;;9.75;;
2652;SDS011;1336;48.692;9.144;2024-01-15T07:46:26;13.45;;;10.40;;
2652;SDS011;1336;48.692;9.144;2024-01-15T07:47:18;14.57;;;10.45;;
2652;SDS011;1336;48.692;9.144;2024-01-15T07:48:09;13.25;;;9.45;;
2652;SDS011;1336;48.692;9.144;2024-01-15T07:49:02;14.00;;;10.00;;
2652;SDS011;1336;48.692;9.144;2024-01-15T07:49:55;13.68;;;10.30;;
2652;SDS011;1336;48.692;9.144;2024-01-15T07:50:46;14.18;;;10.15;;
2652;SDS011;1336;48.692;9.144;2024-01-15T07:51:38;13.40;;;9.77;;
2652;SDS011;1336;48.692;9.144;2024-01-15T07:52:30;11.27;;;9.10;;
2652;SDS011;1336;48.692;9.144;2024-01-15T07:53:21;14.80;;;10.25;;
2652;SDS011;1336;48.692;9.144;2024-01-15T07:54:13;15.13;;;9.90;;
2652;SDS011;1336;48.692;9.144;2024-01-15T07:55:04;14.55;;;9.85;;
2652;SDS011;1336;48.692;9.144;2024-01-15T07:55:56;12.25;;;9.55;;
2652;SDS011;1336;48.692;9.144;2024-01-15T07:56:55;14.05;;;10.27;;
2652;SDS011;1336;48.692;9.144;2024-01-15T07:57:46;12.13;;;9.43;;
2652;SDS011;1336;48.692;9.144;2024-01-15T07:58:38;12.77;;;9.52;;
2652;SDS011;1336;48.692;9.144;2024-01-15T07:59:29;10.75;;;8.75;;
2652;SDS011;1336;48.692;9.144;2024-01-15T08:00:20;14.32;;;10.15;;
2652;SDS011;1336;48.692;9.144;2024-01-15T08:01:12;13.35;;;8.93;;
2652;SDS011;1336;48.692;9.144;2024-01-15T08:02:03;12.38;;;9.45;;
2652;SDS011;1336;48.692;9.144;2024-01-15T08:02:54;10.95;;;8.63;;
2652;SDS011;1336;48.692;9.144;2024-01-15T08:03:46;13.70;;;9.63;;
2652;SDS011;1336;48.692;9.144;2024-01-15T08:04:39;12.60;;;9.05;;
2652;SDS011;1336;48.692;9.144;2024-01-15T08:05:31;12.20;;;9.27;;
2652;SDS011;1336;48.692;9.144;2024-01-15T08:06:22;12.90;;;9.55;;
2652;SDS011;1336;48.692;9.144;2024-01-15T08:07:13;10.02;;;7.88;;
2652;SDS011;1336;48.692;9.144;2024-01-15T08:08:05;12.07;;;8.75;;
2652;SDS011;1336;48.692;9.144;2024-01-15T08:08:56;13.13;;;9.27;;
2652;SDS011;1336;48.692;9.144;2024-01-15T08:09:49;13.73;;;9.27;;
2652;SDS011;1336;48.692;9.144;2024-01-15T08:10:40;12.52;;;8.75;;
2652;SDS011;1336;48.692;9.144;2024-01-15T08:11:32;13.32;;;9.52;;
2652;SDS011;1336;48.692;9.144;2024-01-15T08:12:23;12.80;;;9.15;;
2652;SDS011;1336;48.692;9.144;2024-01-15T08:13:15;11.95;;;8.95;;
2652;SDS011;1336;48.692;9.144;2024-01-15T08:14:06;11.82;;;9.45;;
2652;SDS011;1336;48.692;9.144;2024-01-15T08:14:58;13.25;;;8.85;;
2652;SDS011;1336;48.692;9.144;2024-01-15T08:15:49;11.65;;;9.18;;
2652;SDS011;1336;48.692;9.144;2024-01-15T08:16:41;11.48;;;8.40;;
2652;SDS011;1336;48.692;9.144;2024-01-15T08:17:33;11.27;;;8.40;;
2652;SDS011;1336;48.692;9.144;2024-01-15T08:18:24;10.70;;;8.48;;
2652;SDS011;1336;48.692;9.144;2024-01-15T08:20:11;14.13;;;9.43;;
2652;SDS011;1336;48.692;9.144;2024-01-15T08:21:02;11.73;;;9.18;;
2652;SDS011;1336;48.692;9.144;2024-01-15T08:21:54;11.32;;;8.45;;
2652;SDS011;1336;48.692;9.144;2024-01-15T08:22:45;14.18;;;9.18;;
2652;SDS011;1336;48.692;9.144;2024-01-15T08:23:38;13.38;;;9.60;;
2652;SDS011;1336;48.692;9.144;2024-01-15T08:24:29;12.82;;;8.55;;
2652;SDS011;1336;48.692;9.144;2024-01-15T08:25:21;12.65;;;10.02;;
2652;SDS011;1336;48.692;9.144;2024-01-15T08:26:12;12.30;;;8.57;;
2652;SDS011;1336;48.692;9.144;2024-01-15T08:27:04;13.15;;;9.85;;
2652;SDS011;1336;48.692;9.144;2024-01-15T08:27:55;11.52;;;9.27;;
2652;SDS011;1336;48.692;9.144;2024-01-15T08:28:47;15.23;;;10.10;;
2652;SDS011;1336;48.692;9.144;2024-01-15T08:29:39;13.20;;;9.65;;
2652;SDS011;1336;48.692;9.144;2024-01-15T08:30:30;13.05;;;9.10;;
2652;SDS011;1336;48.692;9.144;2024-01-15T08:31:22;10.68;;;8.48;;
2652;SDS011;1336;48.692;9.144;2024-01-15T08:32:14;12.45;;;9.15;;
2652;SDS011;1336;48.692;9.144;2024-01-15T08:33:05;14.40;;;9.30;;
2652;SDS011;1336;48.692;9.144;2024-01-15T08:33:57;12.15;;;8.90;;
2652;SDS011;1336;48.692;9.144;2024-01-15T08:34:49;10.52;;;8.30;;
2652;SDS011;1336;48.692;9.144;2024-01-15T08:35:43;13.25;;;9.70;;
2652;SDS011;1336;48.692;9.144;2024-01-15T08:36:35;13.10;;;8.63;;
2652;SDS011;1336;48.692;9.144;2024-01-15T08:37:27;12.57;;;10.15;;
2652;SDS011;1336;48.692;9.144;2024-01-15T08:38:19;12.10;;;7.97;;
2652;SDS011;1336;48.692;9.144;2024-01-15T08:39:10;12.90;;;9.27;;
2652;SDS011;1336;48.692;9.144;2024-01-15T08:40:02;10.75;;;7.82;;
2652;SDS011;1336;48.692;9.144;2024-01-15T08:40:53;11.30;;;8.45;;
2652;SDS011;1336;48.692;9.144;2024-01-15T08:41:46;11.20;;;8.70;;
2652;SDS011;1336;48.692;9.144;2024-01-15T08:42:38;11.63;;;7.78;;
2652;SDS011;1336;48.692;9.144;2024-01-15T08:43:29;13.13;;;9.52;;
2652;SDS011;1336;48.692;9.144;2024-01-15T08:44:21;11.45;;;7.65;;
2652;SDS011;1336;48.692;9.144;2024-01-15T08:45:13;14.07;;;7.75;;
2652;SDS011;1336;48.692;9.144;2024-01-15T08:46:04;12.10;;;8.30;;
2652;SDS011;1336;48.692;9.144;2024-01-15T08:46:57;11.73;;;7.85;;
2652;SDS011;1336;48.692;9.144;2024-01-15T08:47:48;10.30;;;7.63;;
2652;SDS011;1336;48.692;9.144;2024-01-15T08:48:40;11.55;;;7.53;;
2652;SDS011;1336;48.692;9.144;2024-01-15T08:49:31;9.65;;;7.47;;
2652;SDS011;1336;48.692;9.144;2024-01-15T08:50:23;10.10;;;7.35;;
2652;SDS011;1336;48.692;9.144;2024-01-15T08:51:16;11.70;;;8.27;;
2652;SDS011;1336;48.692;9.144;2024-01-15T08:52:08;12.30;;;8.52;;
2652;SDS011;1336;48.692;9.144;2024-01-15T08:53:00;10.52;;;6.68;;
2652;SDS011;1336;48.692;9.144;2024-01-15T08:53:51;10.80;;;7.75;;
2652;SDS011;1336;48.692;9.144;2024-01-15T08:54:43;11.80;;;8.10;;
2652;SDS011;1336;48.692;9.144;2024-01-15T08:55:34;10.30;;;7.30;;
2652;SDS011;1336;48.692;9.144;2024-01-15T08:56:27;11.00;;;7.53;;
2652;SDS011;1336;48.692;9.144;2024-01-15T08:57:18;12.55;;;7.70;;
2652;SDS011;1336;48.692;9.144;2024-01-15T08:58:10;8.95;;;7.05;;
2652;SDS011;1336;48.692;9.144;2024-01-15T08:59:01;12.30;;;7.00;;
2652;SDS011;1336;48.692;9.144;2024-01-15T08:59:53;10.02;;;6.75;;
2652;SDS011;1336;48.692;9.144;2024-01-15T09:00:44;9.90;;;6.75;;
2652;SDS011;1336;48.692;9.144;2024-01-15T09:01:35;9.80;;;6.50;;
2652;SDS011;1336;48.692;9.144;2024-01-15T09:02:27;10.05;;;6.95;;
2652;SDS011;1336;48.692;9.144;2024-01-15T09:03:19;10.30;;;6.65;;
2652;SDS011;1336;48.692;9.144;2024-01-15T09:04:11;9.40;;;6.78;;
2652;SDS011;1336;48.692;9.144;2024-01-15T09:05:02;8.70;;;6.22;;
2652;SDS011;1336;48.692;9.144;2024-01-15T09:05:54;9.85;;;7.18;;
2652;SDS011;1336;48.692;9.144;2024-01-15T09:06:48;8.90;;;6.70;;
2652;SDS011;1336;48.692;9.144;2024-01-15T09:07:39;9.35;;;6.63;;
2652;SDS011;1336;48.692;9.144;2024-01-15T09:08:31;7.43;;;5.88;;
2652;SDS011;1336;48.692;9.144;2024-01-15T09:09:22;10.20;;;6.10;;
2652;SDS011;1336;48.692;9.144;2024-01-15T09:10:14;8.02;;;6.03;;
2652;SDS011;1336;48.692;9.144;2024-01-15T09:11:06;9.27;;;6.68;;
2652;SDS011;1336;48.692;9.144;2024-01-15T09:11:58;10.38;;;6.60;;
2652;SDS011;1336;48.692;9.144;2024-01-15T09:12:49;10.05;;;6.68;;
2652;SDS011;1336;48.692;9.144;2024-01-15T09:13:41;9.05;;;6.57;;
2652;SDS011;1336;48.692;9.144;2024-01-15T09:14:33;8.98;;;6.60;;
2652;SDS011;1336;48.692;9.144;2024-01-15T09:15:24;7.45;;;6.25;;
2652;SDS011;1336;48.692;9.144;2024-01-15T09:16:15;10.00;;;7.03;;
2652;SDS011;1336;48.692;9.144;2024-01-15T09:17:07;8.48;;;5.85;;
2652;SDS011;1336;48.692;9.144;2024-01-15T09:17:58;8.32;;;6.55;;
2652;SDS011;1336;48.692;9.144;2024-01-15T09:18:49;8.60;;;6.13;;
2652;SDS011;1336;48.692;9.144;2024-01-15T09:19:41;9.02;;;6.70;;
2652;SDS011;1336;48.692;9.144;2024-01-15T09:20:33;6.95;;;5.65;;
2652;SDS011;1336;48.692;9.144;2024-01-15T09:21:24;8.65;;;6.00;;
2652;SDS011;1336;48.692;9.144;2024-01-15T09:22:17;8.30;;;5.60;;
2652;SDS011;1336;48.692;9.144;2024-01-15T09:23:08;7.20;;;5.57;;
2652;SDS011;1336;48.692;9.144;2024-01-15T09:24:00;7.82;;;5.80;;
2652;SDS011;1336;48.692;9.144;2024-01-15T09:24:51;8.27;;;5.80;;
2652;SDS011;1336;48.692;9.144;2024-01-15T09:25:43;8.07;;;5.90;;
2652;SDS011;1336;48.692;9.144;2024-01-15T09:26:35;7.90;;;5.95;;
2652;SDS011;1336;48.692;9.144;2024-01-15T09:27:26;7.63;;;5.90;;
2652;SDS011;1336;48.692;9.144;2024-01-15T09:28:17;7.47;;;5.25;;
2652;SDS011;1336;48.692;9.144;2024-01-15T09:29:09;6.60;;;5.50;;
2652;SDS011;1336;48.692;9.144;2024-01-15T09:30:00;7.57;;;5.60;;
2652;SDS011;1336;48.692;9.144;2024-01-15T09:30:51;7.32;;;5.63;;
2652;SDS011;1336;48.692;9.144;2024-01-15T09:31:43;7.18;;;5.90;;
2652;SDS011;1336;48.692;9.144;2024-01-15T09:32:34;7.65;;;5.25;;
2652;SDS011;1336;48.692;9.144;2024-01-15T09:33:25;6.97;;;5.20;;
2652;SDS011;1336;48.692;9.144;2024-01-15T09:34:17;9.15;;;5.85;;
2652;SDS011;1336;48.692;9.144;2024-01-15T09:35:09;6.22;;;4.97;;
2652;SDS011;1336;48.692;9.144;2024-01-15T09:36:01;7.30;;;5.53;;
2652;SDS011;1336;48.692;9.144;2024-01-15T09:36:53;6.88;;;5.03;;
2652;SDS011;1336;48.692;9.144;2024-01-15T09:37:47;7.07;;;5.60;;
2652;SDS011;1336;48.692;9.144;2024-01-15T09:38:39;6.85;;;5.10;;
2652;SDS011;1336;48.692;9.144;2024-01-15T09:39:31;6.85;;;5.15;;
2652;SDS011;1336;48.692;9.144;2024-01-15T09:40:23;7.40;;;4.78;;
2652;SDS011;1336;48.692;9.144;2024-01-15T09:41:14;7.40;;;5.03;;
2652;SDS011;1336;48.692;9.144;2024-01-15T09:42:05;7.38;;;4.95;;
2652;SDS011;1336;48.692;9.144;2024-01-15T09:42:58;6.45;;;5.10;;
2652;SDS011;1336;48.692;9.144;2024-01-15T09:43:50;7.40;;;4.93;;
2652;SDS011;1336;48.692;9.144;2024-01-15T09:44:42;6.80;;;5.20;;
2652;SDS011;1336;48.692;9.144;2024-01-15T09:45:33;6.95;;;5.03;;
2652;SDS011;1336;48.692;9.144;2024-01-15T09:46:24;7.20;;;5.03;;
2652;SDS011;1336;48.692;9.144;2024-01-15T09:47:17;7.10;;;5.05;;
2652;SDS011;1336;48.692;9.144;2024-01-15T09:48:08;6.78;;;5.20;;
2652;SDS011;1336;48.692;9.144;2024-01-15T09:48:59;6.05;;;4.85;;
2652;SDS011;1336;48.692;9.144;2024-01-15T09:49:52;8.27;;;5.55;;
2652;SDS011;1336;48.692;9.144;2024-01-15T09:50:43;7.80;;;5.60;;
2652;SDS011;1336;48.692;9.144;2024-01-15T09:51:35;7.40;;;5.53;;
2652;SDS011;1336;48.692;9.144;2024-01-15T09:52:26;7.20;;;5.30;;
2652;SDS011;1336;48.692;9.144;2024-01-15T09:53:19;7.32;;;5.68;;
2652;SDS011;1336;48.692;9.144;2024-01-15T09:54:11;8.48;;;5.43;;
2652;SDS011;1336;48.692;9.144;2024-01-15T09:55:05;7.18;;;5.40;;
2652;SDS011;1336;48.692;9.144;2024-01-15T09:55:57;8.48;;;5.82;;
2652;SDS011;1336;48.692;9.144;2024-01-15T09:56:49;7.88;;;5.47;;
2652;SDS011;1336;48.692;9.144;2024-01-15T09:57:41;6.95;;;5.72;;
2652;SDS011;1336;48.692;9.144;2024-01-15T09:58:32;7.43;;;5.57;;
2652;SDS011;1336;48.692;9.144;2024-01-15T09:59:25;6.80;;;5.60;;
2652;SDS011;1336;48.692;9.144;2024-01-15T10:00:17;7.63;;;5.70;;
2652;SDS011;1336;48.692;9.144;2024-01-15T10:01:08;7.57;;;5.80;;
2652;SDS011;1336;48.692;9.144;2024-01-15T10:02:01;7.13;;;5.40;;
2652;SDS011;1336;48.692;9.144;2024-01-15T10:02:52;7.70;;;5.50;;
2652;SDS011;1336;48.692;9.144;2024-01-15T10:03:44;8.38;;;5.95;;
2652;SDS011;1336;48.692;9.144;2024-01-15T10:04:36;8.02;;;5.43;;
2652;SDS011;1336;48.692;9.144;2024-01-15T10:05:27;8.68;;;6.18;;
2652;SDS011;1336;48.692;9.144;2024-01-15T10:06:18;8.20;;;5.35;;
2652;SDS011;1336;48.692;9.144;2024-01-15T10:07:14;6.78;;;5.53;;
2652;SDS011;1336;48.692;9.144;2024-01-15T10:08:06;9.23;;;5.40;;
2652;SDS011;1336;48.692;9.144;2024-01-15T10:08:58;8.55;;;5.75;;
2652;SDS011;1336;48.692;9.144;2024-01-15T10:09:51;8.00;;;6.45;;
2652;SDS011;1336;48.692;9.144;2024-01-15T10:10:42;7.82;;;5.82;;
2652;SDS011;1336;48.692;9.144;2024-01-15T10:11:33;8.40;;;6.45;;
2652;SDS011;1336;48.692;9.144;2024-01-15T10:12:26;6.53;;;5.53;;
2652;SDS011;1336;48.692;9.144;2024-01-15T10:13:17;6.75;;;5.05;;
2652;SDS011;1336;48.692;9.144;2024-01-15T10:14:09;8.13;;;5.97;;
2652;SDS011;1336;48.692;9.144;2024-01-15T10:15:02;7.68;;;5.55;;
2652;SDS011;1336;48.692;9.144;2024-01-15T10:15:54;6.28;;;5.35;;
2652;SDS011;1336;48.692;9.144;2024-01-15T10:16:46;9.00;;;6.03;;
2652;SDS011;1336;48.692;9.144;2024-01-15T10:17:38;7.78;;;5.20;;
2652;SDS011;1336;48.692;9.144;2024-01-15T10:18:29;8.18;;;5.55;;
2652;SDS011;1336;48.692;9.144;2024-01-15T10:19:21;7.30;;;5.65;;
2652;SDS011;1336;48.692;9.144;2024-01-15T10:20:13;7.43;;;5.43;;
2652;SDS011;1336;48.692;9.144;2024-01-15T10:21:05;10.70;;;8.15;;
2652;SDS011;1336;48.692;9.144;2024-01-15T10:21:57;7.07;;;5.32;;
2652;SDS011;1336;48.692;9.144;2024-01-15T10:22:49;6.93;;;5.45;;
2652;SDS011;1336;48.692;9.144;2024-01-15T10:23:42;6.85;;;5.18;;
2652;SDS011;1336;48.692;9.144;2024-01-15T10:24:34;8.93;;;5.25;;
2652;SDS011;1336;48.692;9.144;2024-01-15T10:25:25;6.60;;;5.00;;
2652;SDS011;1336;48.692;9.144;2024-01-15T10:26:17;6.97;;;5.63;;
2652;SDS011;1336;48.692;9.144;2024-01-15T10:27:09;7.57;;;5.32;;
2652;SDS011;1336;48.692;9.144;2024-01-15T10:28:00;9.00;;;5.38;;
2652;SDS011;1336;48.692;9.144;2024-01-15T10:28:53;7.30;;;5.50;;
2652;SDS011;1336;48.692;9.144;2024-01-15T10:29:44;7.10;;;5.07;;
2652;SDS011;1336;48.692;9.144;2024-01-15T10:30:35;23.15;;;13.73;;
2652;SDS011;1336;48.692;9.144;2024-01-15T10:31:28;10.25;;;7.15;;
2652;SDS011;1336;48.692;9.144;2024-01-15T10:32:19;7.53;;;5.20;;
2652;SDS011;1336;48.692;9.144;2024-01-15T10:33:14;7.22;;;5.32;;
2652;SDS011;1336;48.692;9.144;2024-01-15T10:34:12;9.57;;;5.45;;
2652;SDS011;1336;48.692;9.144;2024-01-15T10:35:06;7.90;;;5.22;;
2652;SDS011;1336;48.692;9.144;2024-01-15T10:35:59;7.13;;;5.18;;
2652;SDS011;1336;48.692;9.144;2024-01-15T10:36:52;7.25;;;5.47;;
2652;SDS011;1336;48.692;9.144;2024-01-15T10:37:45;7.70;;;5.35;;
2652;SDS011;1336;48.692;9.144;2024-01-15T10:38:38;7.80;;;5.07;;
2652;SDS011;1336;48.692;9.144;2024-01-15T10:39:30;8.05;;;5.30;;
2652;SDS011;1336;48.692;9.144;2024-01-15T10:40:22;6.20;;;4.90;;
2652;SDS011;1336;48.692;9.144;2024-01-15T10:41:13;9.07;;;5.25;;
2652;SDS011;1336;48.692;9.144;2024-01-15T10:42:06;6.82;;;5.38;;
2652;SDS011;1336;48.692;9.144;2024-01-15T10:42:57;7.57;;;5.28;;
2652;SDS011;1336;48.692;9.144;2024-01-15T10:43:48;9.77;;;5.38;;
2652;SDS011;1336;48.692;9.144;2024-01-15T10:44:40;7.03;;;5.18;;
2652;SDS011;1336;48.692;9.144;2024-01-15T10:45:33;7.53;;;5.68;;
2652;SDS011;1336;48.692;9.144;2024-01-15T10:46:24;6.07;;;4.85;;
2652;SDS011;1336;48.692;9.144;2024-01-15T10:47:17;9.32;;;5.85;;
2652;SDS011;1336;48.692;9.144;2024-01-15T10:48:09;6.95;;;5.35;;
2652;SDS011;1336;48.692;9.144;2024-01-15T10:49:01;8.43;;;5.65;;
2652;SDS011;1336;48.692;9.144;2024-01-15T10:49:52;8.07;;;6.10;;
2652;SDS011;1336;48.692;9.144;2024-01-15T10:50:43;8.02;;;6.15;;
2652;SDS011;1336;48.692;9.144;2024-01-15T10:51:35;9.73;;;5.82;;
2652;SDS011;1336;48.692;9.144;2024-01-15T10:52:27;6.90;;;5.40;;
2652;SDS011;1336;48.692;9.144;2024-01-15T10:53:19;8.57;;;5.47;;
2652;SDS011;1336;48.692;9.144;2024-01-15T10:54:12;7.70;;;5.20;;
2652;SDS011;1336;48.692;9.144;2024-01-15T10:55:04;7.95;;;5.90;;
2652;SDS011;1336;48.692;9.144;2024-01-15T10:55:58;6.65;;;5.40;;
2652;SDS011;1336;48.692;9.144;2024-01-15T10:56:49;8.63;;;5.63;;
2652;SDS011;1336;48.692;9.144;2024-01-15T10:57:42;6.60;;;4.75;;
2652;SDS011;1336;48.692;9.144;2024-01-15T10:58:35;7.20;;;5.90;;
2652;SDS011;1336;48.692;9.144;2024-01-15T10:59:28;8.20;;;5.40;;
2652;SDS011;1336;48.692;9.144;2024-01-15T11:00:20;6.93;;;5.70;;
2652;SDS011;1336;48.692;9.144;2024-01-15T11:01:11;7.32;;;5.28;;
2652;SDS011;1336;48.692;9.144;2024-01-15T11:02:03;9.07;;;6.32;;
2652;SDS011;1336;48.692;9.144;2024-01-15T11:02:55;7.20;;;5.18;;
2652;SDS011;1336;48.692;9.144;2024-01-15T11:03:46;7.07;;;5.28;;
2652;SDS011;1336;48.692;9.144;2024-01-15T11:04:39;8.30;;;5.70;;
2652;SDS011;1336;48.692;9.144;2024-01-15T11:05:32;8.02;;;6.55;;
2652;SDS011;1336;48.692;9.144;2024-01-15T11:06:24;7.55;;;5.50;;
2652;SDS011;1336;48.692;9.144;2024-01-15T11:07:16;6.60;;;5.53;;
2652;SDS011;1336;48.692;9.144;2024-01-15T11:08:08;6.70;;;5.10;;
2652;SDS011;1336;48.692;9.144;2024-01-15T11:09:01;7.35;;;5.40;;
2652;SDS011;1336;48.692;9.144;2024-01-15T11:09:54;10.68;;;6.38;;
2652;SDS011;1336;48.692;9.144;2024-01-15T11:10:45;6.95;;;5.30;;
2652;SDS011;1336;48.692;9.144;2024-01-15T11:11:45;6.15;;;5.20;;
2652;SDS011;1336;48.692;9.144;2024-01-15T11:12:36;6.70;;;5.25;;
2652;SDS011;1336;48.692;9.144;2024-01-15T11:13:39;7.75;;;5.35;;
2652;SDS011;1336;48.692;9.144;2024-01-15T11:14:33;7.85;;;5.80;;
2652;SDS011;1336;48.692;9.144;2024-01-15T11:15:25;8.52;;;6.03;;
2652;SDS011;1336;48.692;9.144;2024-01-15T11:16:19;7.07;;;5.50;;
2652;SDS011;1336;48.692;9.144;2024-01-15T11:17:11;7.20;;;5.75;;
2652;SDS011;1336;48.692;9.144;2024-01-15T11:18:03;6.55;;;5.03;;
2652;SDS011;1336;48.692;9.144;2024-01-15T11:19:01;7.20;;;5.63;;